Time,TemperatureF,DewpointF,PressureIn,WindDirection,WindDirectionDegrees,WindSpeedMPH,WindSpeedGustMPH,Humidity,HourlyPrecipIn,Conditions,Clouds,dailyrainin,SoftwareType,DateUTC
2013-05-07 00:00:00,62.9,59.0,29.97,North,32767,0.0,0.0,87,0.00,,,0.00,Wunderground v.1.15,2013-05-07 05:00:00,
2013-05-07 00:05:00,62.7,59.1,29.97,North,32767,0.0,0.0,88,0.00,,,0.00,Wunderground v.1.15,2013-05-07 05:05:00,
2013-05-07 00:10:00,62.3,58.7,29.97,North,32767,0.0,0.0,88,0.00,,,0.00,Wunderground v.1.15,2013-05-07 05:10:00,
2013-05-07 00:15:00,62.0,58.7,29.97,North,32767,0.0,0.0,89,0.00,,,0.00,Wunderground v.1.15,2013-05-07 05:15:00,
2013-05-07 00:20:00,61.6,58.6,29.97,North,32767,0.0,0.0,90,0.00,,,0.00,Wunderground v.1.15,2013-05-07 05:20:00,
2013-05-07 00:30:00,60.9,57.9,29.97,North,32767,0.0,0.0,90,0.00,,,0.00,Wunderground v.1.15,2013-05-07 05:30:00,
2013-05-07 00:35:00,60.6,58.0,29.97,North,32767,0.0,0.0,91,0.00,,,0.00,Wunderground v.1.15,2013-05-07 05:35:00,
2013-05-07 00:40:00,60.3,57.7,29.97,North,32767,0.0,0.0,91,0.00,,,0.00,Wunderground v.1.15,2013-05-07 05:40:00,
2013-05-07 00:45:00,60.0,57.7,29.97,North,32767,0.0,0.0,92,0.00,,,0.00,Wunderground v.1.15,2013-05-07 05:45:00,
2013-05-07 00:50:00,59.8,57.5,29.97,North,32767,0.0,0.0,92,0.00,,,0.00,Wunderground v.1.15,2013-05-07 05:50:00,
2013-05-07 00:55:00,59.6,57.6,29.97,North,32767,0.0,0.0,93,0.00,,,0.00,Wunderground v.1.15,2013-05-07 05:55:00,
2013-05-07 01:00:00,59.4,57.4,29.96,North,32767,0.0,0.0,93,0.00,,,0.00,Wunderground v.1.15,2013-05-07 06:00:00,
2013-05-07 01:05:00,59.3,57.3,29.96,North,32767,0.0,0.0,93,0.00,,,0.00,Wunderground v.1.15,2013-05-07 06:05:00,
2013-05-07 01:15:00,58.9,57.2,29.96,North,32767,0.0,0.0,94,0.00,,,0.00,Wunderground v.1.15,2013-05-07 06:15:00,
2013-05-07 01:20:00,58.8,57.1,29.96,North,32767,0.0,0.0,94,0.00,,,0.00,Wunderground v.1.15,2013-05-07 06:20:00,
2013-05-07 01:25:00,58.7,57.0,29.96,North,32767,0.0,0.0,94,0.00,,,0.00,Wunderground v.1.15,2013-05-07 06:25:00,
2013-05-07 01:30:00,58.5,56.8,29.96,North,32767,0.0,0.0,94,0.00,,,0.00,Wunderground v.1.15,2013-05-07 06:30:00,
2013-05-07 01:35:00,58.4,56.7,29.96,North,32767,0.0,0.0,94,0.00,,,0.00,Wunderground v.1.15,2013-05-07 06:35:00,
2013-05-07 01:40:00,58.3,56.9,29.96,North,32767,0.0,0.0,95,0.00,,,0.00,Wunderground v.1.15,2013-05-07 06:40:00,
2013-05-07 01:45:00,58.2,56.8,29.96,North,32767,0.0,0.0,95,0.00,,,0.00,Wunderground v.1.15,2013-05-07 06:45:00,
2013-05-07 01:50:00,58.0,56.6,29.96,North,32767,0.0,0.0,95,0.00,,,0.00,Wunderground v.1.15,2013-05-07 06:50:00,
2013-05-07 01:55:00,57.9,56.5,29.96,North,32767,0.0,0.0,95,0.00,,,0.00,Wunderground v.1.15,2013-05-07 06:55:00,
2013-05-07 02:05:00,57.6,56.2,29.96,North,32767,0.0,0.0,95,0.00,,,0.00,Wunderground v.1.15,2013-05-07 07:05:00,
2013-05-07 02:10:00,57.5,56.1,29.96,North,32767,0.0,0.0,95,0.00,,,0.00,Wunderground v.1.15,2013-05-07 07:10:00,
2013-05-07 02:15:00,57.4,56.0,29.96,North,32767,0.0,0.0,95,0.00,,,0.00,Wunderground v.1.15,2013-05-07 07:15:00,
2013-05-07 02:20:00,57.3,55.9,29.95,North,32767,0.0,0.0,95,0.00,,,0.00,Wunderground v.1.15,2013-05-07 07:20:00,
2013-05-07 02:25:00,57.2,56.1,29.95,North,32767,0.0,0.0,96,0.00,,,0.00,Wunderground v.1.15,2013-05-07 07:25:00,
2013-05-07 02:30:00,57.1,56.0,29.95,North,32767,0.0,0.0,96,0.00,,,0.00,Wunderground v.1.15,2013-05-07 07:30:00,
2013-05-07 02:35:00,57.0,55.9,29.95,North,32767,0.0,0.0,96,0.00,,,0.00,Wunderground v.1.15,2013-05-07 07:35:00,
2013-05-07 02:40:00,56.9,55.8,29.95,North,32767,0.0,0.0,96,0.00,,,0.00,Wunderground v.1.15,2013-05-07 07:40:00,
2013-05-07 02:45:00,56.8,55.7,29.95,North,32767,0.0,0.0,96,0.00,,,0.00,Wunderground v.1.15,2013-05-07 07:45:00,
2013-05-07 02:50:00,56.7,55.6,29.95,North,32767,0.0,0.0,96,0.00,,,0.00,Wunderground v.1.15,2013-05-07 07:50:00,
2013-05-07 02:55:00,56.6,55.5,29.95,North,32767,0.0,0.0,96,0.00,,,0.00,Wunderground v.1.15,2013-05-07 07:55:00,
2013-05-07 03:00:00,56.4,55.3,29.95,North,32767,0.0,0.0,96,0.00,,,0.00,Wunderground v.1.15,2013-05-07 08:00:00,
2013-05-07 03:05:00,56.2,55.1,29.95,North,32767,0.0,0.0,96,0.00,,,0.00,Wunderground v.1.15,2013-05-07 08:05:00,
2013-05-07 03:10:00,56.1,55.0,29.96,North,32767,0.0,0.0,96,0.00,,,0.00,Wunderground v.1.15,2013-05-07 08:10:00,
2013-05-07 03:15:00,56.1,55.0,29.96,North,32767,0.0,0.0,96,0.00,,,0.00,Wunderground v.1.15,2013-05-07 08:15:00,
2013-05-07 03:20:00,56.0,54.9,29.96,North,32767,0.0,0.0,96,0.00,,,0.00,Wunderground v.1.15,2013-05-07 08:20:00,
2013-05-07 03:25:00,55.9,54.8,29.95,N/A,-737280,0.0,-999.0,96,0.00,,,0.00,Wunderground v.1.15,2013-05-07 08:25:00,
2013-05-07 03:30:00,55.8,54.7,29.95,N/A,-737280,0.0,-999.0,96,0.00,,,0.00,Wunderground v.1.15,2013-05-07 08:30:00,
2013-05-07 03:35:00,55.7,54.6,29.95,N/A,-737280,0.0,-999.0,96,0.00,,,0.00,Wunderground v.1.15,2013-05-07 08:35:00,
2013-05-07 03:40:00,55.6,54.5,29.95,N/A,-737280,0.0,-999.0,96,0.00,,,0.00,Wunderground v.1.15,2013-05-07 08:40:00,
2013-05-07 03:45:00,55.6,54.5,29.95,N/A,-737280,0.0,-999.0,96,0.00,,,0.00,Wunderground v.1.15,2013-05-07 08:45:00,
2013-05-07 03:50:00,55.7,54.6,29.95,N/A,-737280,0.0,-999.0,96,0.00,,,0.00,Wunderground v.1.15,2013-05-07 08:50:00,
2013-05-07 03:55:00,55.7,54.6,29.95,N/A,-737280,0.0,-999.0,96,0.00,,,0.00,Wunderground v.1.15,2013-05-07 08:55:00,
2013-05-07 04:00:00,55.6,54.5,29.95,N/A,-737280,0.0,-999.0,96,0.00,,,0.00,Wunderground v.1.15,2013-05-07 09:00:00,
2013-05-07 04:05:00,55.5,54.7,29.95,N/A,-737280,0.0,-999.0,97,0.00,,,0.00,Wunderground v.1.15,2013-05-07 09:05:00,
2013-05-07 04:10:00,55.5,54.7,29.95,N/A,-737280,0.0,-999.0,97,0.00,,,0.00,Wunderground v.1.15,2013-05-07 09:10:00,
2013-05-07 04:15:00,55.3,54.5,29.95,N/A,-737280,0.0,-999.0,97,0.00,,,0.00,Wunderground v.1.15,2013-05-07 09:15:00,
2013-05-07 04:20:00,55.3,54.5,29.95,N/A,-737280,0.0,-999.0,97,0.00,,,0.00,Wunderground v.1.15,2013-05-07 09:20:00,
2013-05-07 04:25:00,55.2,54.4,29.95,N/A,-737280,0.0,-999.0,97,0.00,,,0.00,Wunderground v.1.15,2013-05-07 09:25:00,
2013-05-07 04:30:00,55.1,54.3,29.95,N/A,-737280,0.0,-999.0,97,0.00,,,0.00,Wunderground v.1.15,2013-05-07 09:30:00,
2013-05-07 04:35:00,55.1,54.3,29.96,N/A,-737280,0.0,-999.0,97,0.00,,,0.00,Wunderground v.1.15,2013-05-07 09:35:00,
2013-05-07 04:40:00,55.0,54.2,29.96,N/A,-737280,0.0,-999.0,97,0.00,,,0.00,Wunderground v.1.15,2013-05-07 09:40:00,
2013-05-07 04:45:00,55.0,54.2,29.96,N/A,-737280,0.0,-999.0,97,0.00,,,0.00,Wunderground v.1.15,2013-05-07 09:45:00,
2013-05-07 04:50:00,55.0,54.2,29.96,N/A,-737280,0.0,-999.0,97,0.00,,,0.00,Wunderground v.1.15,2013-05-07 09:50:00,
2013-05-07 04:55:00,54.9,54.1,29.96,N/A,-737280,0.0,-999.0,97,0.00,,,0.00,Wunderground v.1.15,2013-05-07 09:55:00,
2013-05-07 05:00:00,54.9,54.1,29.96,N/A,-737280,0.0,-999.0,97,0.00,,,0.00,Wunderground v.1.15,2013-05-07 10:00:00,
2013-05-07 05:05:00,54.9,54.1,29.96,N/A,-737280,0.0,-999.0,97,0.00,,,0.00,Wunderground v.1.15,2013-05-07 10:05:00,
2013-05-07 05:10:00,54.9,54.1,29.96,N/A,-737280,0.0,-999.0,97,0.00,,,0.00,Wunderground v.1.15,2013-05-07 10:10:00,
2013-05-07 05:15:00,54.9,54.1,29.96,N/A,-737280,0.0,-999.0,97,0.00,,,0.00,Wunderground v.1.15,2013-05-07 10:15:00,
2013-05-07 05:20:00,54.9,54.1,29.96,N/A,-737280,0.0,-999.0,97,0.00,,,0.00,Wunderground v.1.15,2013-05-07 10:20:00,
2013-05-07 05:25:00,54.9,54.1,29.97,N/A,-737280,0.0,-999.0,97,0.00,,,0.00,Wunderground v.1.15,2013-05-07 10:25:00,
2013-05-07 05:30:00,54.8,54.0,29.97,N/A,-737280,0.0,-999.0,97,0.00,,,0.00,Wunderground v.1.15,2013-05-07 10:30:00,
2013-05-07 05:35:00,54.8,54.0,29.97,N/A,-737280,0.0,-999.0,97,0.00,,,0.00,Wunderground v.1.15,2013-05-07 10:35:00,
2013-05-07 05:40:00,54.7,53.9,29.97,N/A,-737280,0.0,-999.0,97,0.00,,,0.00,Wunderground v.1.15,2013-05-07 10:40:00,
2013-05-07 05:45:00,54.7,53.9,29.97,N/A,-737280,0.0,-999.0,97,0.00,,,0.00,Wunderground v.1.15,2013-05-07 10:45:00,
2013-05-07 05:50:00,54.6,53.8,29.98,N/A,-737280,0.0,-999.0,97,0.00,,,0.00,Wunderground v.1.15,2013-05-07 10:50:00,
2013-05-07 05:55:00,54.5,53.7,29.98,N/A,-737280,0.0,-999.0,97,0.00,,,0.00,Wunderground v.1.15,2013-05-07 10:55:00,
2013-05-07 06:00:00,54.4,53.6,29.98,N/A,-737280,0.0,-999.0,97,0.00,,,0.00,Wunderground v.1.15,2013-05-07 11:00:00,
2013-05-07 06:05:00,54.4,53.6,29.98,N/A,-737280,0.0,-999.0,97,0.00,,,0.00,Wunderground v.1.15,2013-05-07 11:05:00,
2013-05-07 06:10:00,54.4,53.6,29.99,N/A,-737280,0.0,-999.0,97,0.00,,,0.00,Wunderground v.1.15,2013-05-07 11:10:00,
2013-05-07 06:15:00,54.4,53.6,29.99,N/A,-737280,0.0,-999.0,97,0.00,,,0.00,Wunderground v.1.15,2013-05-07 11:15:00,
2013-05-07 06:20:00,54.4,53.6,29.99,N/A,-737280,0.0,-999.0,97,0.00,,,0.00,Wunderground v.1.15,2013-05-07 11:20:00,
2013-05-07 06:25:00,54.4,53.6,29.99,N/A,-737280,0.0,-999.0,97,0.00,,,0.00,Wunderground v.1.15,2013-05-07 11:25:00,
2013-05-07 06:30:00,54.5,53.7,30.00,N/A,-737280,0.0,-999.0,97,0.00,,,0.00,Wunderground v.1.15,2013-05-07 11:30:00,
2013-05-07 06:35:00,54.6,53.8,30.00,N/A,-737280,0.0,-999.0,97,0.00,,,0.00,Wunderground v.1.15,2013-05-07 11:35:00,
2013-05-07 06:40:00,54.9,54.1,30.00,N/A,-737280,0.0,-999.0,97,0.00,,,0.00,Wunderground v.1.15,2013-05-07 11:40:00,
2013-05-07 06:45:00,55.1,54.3,30.00,N/A,-737280,0.0,-999.0,97,0.00,,,0.00,Wunderground v.1.15,2013-05-07 11:45:00,
2013-05-07 06:50:00,55.3,54.5,30.00,N/A,-737280,0.0,-999.0,97,0.00,,,0.00,Wunderground v.1.15,2013-05-07 11:50:00,
2013-05-07 06:55:00,55.5,54.9,30.00,N/A,-737280,0.0,-999.0,98,0.00,,,0.00,Wunderground v.1.15,2013-05-07 11:55:00,
2013-05-07 07:08:00,55.8,55.0,30.01,N/A,-737280,0.0,-999.0,97,0.00,,,0.00,Wunderground v.1.15,2013-05-07 12:08:00,
2013-05-07 07:15:00,57.2,56.6,30.01,North,32767,0.0,0.0,98,0.00,,,0.00,Wunderground v.1.15,2013-05-07 12:15:00,
2013-05-07 07:20:00,57.6,57.0,30.01,North,32767,0.0,0.0,98,0.00,,,0.00,Wunderground v.1.15,2013-05-07 12:20:00,
2013-05-07 07:30:00,58.7,57.9,30.01,North,32767,0.0,0.0,97,0.00,,,0.00,Wunderground v.1.15,2013-05-07 12:30:00,
2013-05-07 07:35:00,59.3,58.4,30.01,North,32767,0.0,0.0,97,0.00,,,0.00,Wunderground v.1.15,2013-05-07 12:35:00,
2013-05-07 07:40:00,60.0,59.1,30.01,North,32767,0.0,0.0,97,0.00,,,0.00,Wunderground v.1.15,2013-05-07 12:40:00,
2013-05-07 07:45:00,60.8,59.7,30.02,North,32767,0.0,0.0,96,0.00,,,0.00,Wunderground v.1.15,2013-05-07 12:45:00,
2013-05-07 07:50:00,61.5,60.1,30.02,North,32767,0.0,0.0,95,0.00,,,0.00,Wunderground v.1.15,2013-05-07 12:50:00,
2013-05-07 07:55:00,62.2,60.2,30.02,North,32767,0.0,0.0,93,0.00,,,0.00,Wunderground v.1.15,2013-05-07 12:55:00,
2013-05-07 08:00:00,62.8,60.4,30.02,North,32767,0.0,0.0,92,0.00,,,0.00,Wunderground v.1.15,2013-05-07 13:00:00,
2013-05-07 08:05:00,63.3,60.6,30.02,North,32767,0.0,0.0,91,0.00,,,0.00,Wunderground v.1.15,2013-05-07 13:05:00,
2013-05-07 08:10:00,63.7,61.0,30.02,North,32767,0.0,0.0,91,0.00,,,0.00,Wunderground v.1.15,2013-05-07 13:10:00,
2013-05-07 08:15:00,64.0,61.0,30.02,North,32767,0.0,0.0,90,0.00,,,0.00,Wunderground v.1.15,2013-05-07 13:15:00,
2013-05-07 08:20:00,64.3,61.0,30.02,North,32767,0.0,0.0,89,0.00,,,0.00,Wunderground v.1.15,2013-05-07 13:20:00,
2013-05-07 08:25:00,64.5,61.2,30.02,North,32767,0.0,0.0,89,0.00,,,0.00,Wunderground v.1.15,2013-05-07 13:25:00,
2013-05-07 08:30:00,64.8,61.2,30.02,North,32767,0.0,0.0,88,0.00,,,0.00,Wunderground v.1.15,2013-05-07 13:30:00,
2013-05-07 08:35:00,65.0,61.4,30.03,North,32767,0.0,0.0,88,0.00,,,0.00,Wunderground v.1.15,2013-05-07 13:35:00,
2013-05-07 08:45:00,65.8,62.1,30.03,North,32767,0.0,0.0,88,0.00,,,0.00,Wunderground v.1.15,2013-05-07 13:45:00,
2013-05-07 08:50:00,66.2,62.2,30.03,North,32767,0.0,0.0,87,0.00,,,0.00,Wunderground v.1.15,2013-05-07 13:50:00,
2013-05-07 08:55:00,66.4,61.4,30.03,North,32767,0.0,0.0,84,0.00,,,0.00,Wunderground v.1.15,2013-05-07 13:55:00,
2013-05-07 09:00:00,66.8,62.1,30.03,North,32767,0.0,0.0,85,0.00,,,0.00,Wunderground v.1.15,2013-05-07 14:00:00,
2013-05-07 09:05:00,67.2,62.2,30.03,North,32767,0.0,0.0,84,0.00,,,0.00,Wunderground v.1.15,2013-05-07 14:05:00,
2013-05-07 09:10:00,67.4,62.1,30.03,North,32767,0.0,0.0,83,0.00,,,0.00,Wunderground v.1.15,2013-05-07 14:10:00,
2013-05-07 09:15:00,67.7,62.0,30.03,North,32767,0.0,0.0,82,0.00,,,0.00,Wunderground v.1.15,2013-05-07 14:15:00,
2013-05-07 09:20:00,67.9,62.2,30.03,North,32767,0.0,0.0,82,0.00,,,0.00,Wunderground v.1.15,2013-05-07 14:20:00,
2013-05-07 09:25:00,68.2,62.5,30.03,North,32767,0.0,0.0,82,0.00,,,0.00,Wunderground v.1.15,2013-05-07 14:25:00,
2013-05-07 09:30:00,68.6,62.5,30.03,North,32767,0.0,0.0,81,0.00,,,0.00,Wunderground v.1.15,2013-05-07 14:30:00,
2013-05-07 09:35:00,68.9,62.5,30.03,North,32767,0.0,0.0,80,0.00,,,0.00,Wunderground v.1.15,2013-05-07 14:35:00,
2013-05-07 09:40:00,69.1,62.3,30.03,North,32767,0.0,0.0,79,0.00,,,0.00,Wunderground v.1.15,2013-05-07 14:40:00,
2013-05-07 09:45:00,69.3,61.8,30.04,North,32767,0.0,0.0,77,0.00,,,0.00,Wunderground v.1.15,2013-05-07 14:45:00,
2013-05-07 09:50:00,69.3,62.1,30.04,North,32767,0.0,0.0,78,0.00,,,0.00,Wunderground v.1.15,2013-05-07 14:50:00,
2013-05-07 09:55:00,69.5,62.7,30.04,North,32767,0.0,0.0,79,0.00,,,0.00,Wunderground v.1.15,2013-05-07 14:55:00,
2013-05-07 10:00:00,69.8,62.6,30.03,North,32767,0.0,0.0,78,0.00,,,0.00,Wunderground v.1.15,2013-05-07 15:00:00,
2013-05-07 10:05:00,70.1,62.2,30.04,North,32767,0.0,0.0,76,0.00,,,0.00,Wunderground v.1.15,2013-05-07 15:05:00,
2013-05-07 10:10:00,70.2,62.6,30.04,North,32767,0.0,0.0,77,0.00,,,0.00,Wunderground v.1.15,2013-05-07 15:10:00,
2013-05-07 10:15:00,70.9,63.7,30.03,North,32767,0.0,0.0,78,0.00,,,0.00,Wunderground v.1.15,2013-05-07 15:15:00,
2013-05-07 10:20:00,71.5,63.2,30.03,North,32767,0.0,0.0,75,0.00,,,0.00,Wunderground v.1.15,2013-05-07 15:20:00,
2013-05-07 10:25:00,72.1,62.6,30.03,North,32767,0.0,0.0,72,0.00,,,0.00,Wunderground v.1.15,2013-05-07 15:25:00,
2013-05-07 10:30:00,72.3,64.3,30.03,North,32767,0.0,0.0,76,0.00,,,0.00,Wunderground v.1.15,2013-05-07 15:30:00,
2013-05-07 10:35:00,72.3,63.5,30.03,North,32767,0.0,0.0,74,0.00,,,0.00,Wunderground v.1.15,2013-05-07 15:35:00,
2013-05-07 10:40:00,72.2,63.8,30.03,North,32767,0.0,0.0,75,0.00,,,0.00,Wunderground v.1.15,2013-05-07 15:40:00,
2013-05-07 10:45:00,72.2,64.2,30.03,North,32767,0.0,0.0,76,0.00,,,0.00,Wunderground v.1.15,2013-05-07 15:45:00,
2013-05-07 10:50:00,71.7,64.8,30.03,North,32767,0.0,0.0,79,0.00,,,0.00,Wunderground v.1.15,2013-05-07 15:50:00,
2013-05-07 10:55:00,71.5,63.5,30.03,North,32767,0.0,0.0,76,0.00,,,0.00,Wunderground v.1.15,2013-05-07 15:55:00,
2013-05-07 11:00:00,71.5,64.6,30.03,North,32767,0.0,0.0,79,0.00,,,0.00,Wunderground v.1.15,2013-05-07 16:00:00,
2013-05-07 11:05:00,72.0,65.1,30.03,North,32767,0.0,0.0,79,0.00,,,0.00,Wunderground v.1.15,2013-05-07 16:05:00,
2013-05-07 11:15:00,72.2,63.8,30.03,North,32767,0.0,0.0,75,0.00,,,0.00,Wunderground v.1.15,2013-05-07 16:15:00,
2013-05-07 11:20:00,72.4,64.8,30.03,North,32767,0.0,0.0,77,0.00,,,0.00,Wunderground v.1.15,2013-05-07 16:20:00,
2013-05-07 11:25:00,72.6,64.6,30.03,North,32767,0.0,0.0,76,0.00,,,0.00,Wunderground v.1.15,2013-05-07 16:25:00,
2013-05-07 11:30:00,72.9,65.3,30.03,North,32767,0.0,0.0,77,0.00,,,0.00,Wunderground v.1.15,2013-05-07 16:30:00,
2013-05-07 11:35:00,73.1,64.7,30.03,North,32767,0.0,0.0,75,0.00,,,0.00,Wunderground v.1.15,2013-05-07 16:35:00,
2013-05-07 11:40:00,73.0,63.4,30.03,North,32767,0.0,0.0,72,0.00,,,0.00,Wunderground v.1.15,2013-05-07 16:40:00,
2013-05-07 11:45:00,73.4,65.0,30.03,North,32767,0.0,0.0,75,0.00,,,0.00,Wunderground v.1.15,2013-05-07 16:45:00,
2013-05-07 11:50:00,73.7,63.7,30.03,North,32767,0.0,0.0,71,0.00,,,0.00,Wunderground v.1.15,2013-05-07 16:50:00,
2013-05-07 11:55:00,74.0,64.0,30.02,North,32767,0.0,0.0,71,0.00,,,0.00,Wunderground v.1.15,2013-05-07 16:55:00,
2013-05-07 12:00:00,74.1,64.9,30.02,North,32767,0.0,0.0,73,0.00,,,0.00,Wunderground v.1.15,2013-05-07 17:00:00,
2013-05-07 12:05:00,74.5,64.1,30.02,North,32767,0.0,0.0,70,0.00,,,0.00,Wunderground v.1.15,2013-05-07 17:05:00,
2013-05-07 12:10:00,74.4,64.0,30.02,North,32767,0.0,0.0,70,0.00,,,0.00,Wunderground v.1.15,2013-05-07 17:10:00,
2013-05-07 12:15:00,74.3,64.7,30.02,North,32767,0.0,0.0,72,0.00,,,0.00,Wunderground v.1.15,2013-05-07 17:15:00,
2013-05-07 12:20:00,74.9,66.1,30.02,North,32767,0.0,0.0,74,0.00,,,0.00,Wunderground v.1.15,2013-05-07 17:20:00,
2013-05-07 12:25:00,75.3,66.8,30.02,North,32767,0.0,0.0,75,0.00,,,0.00,Wunderground v.1.15,2013-05-07 17:25:00,
2013-05-07 12:30:00,74.8,64.8,30.01,North,32767,0.0,0.0,71,0.00,,,0.00,Wunderground v.1.15,2013-05-07 17:30:00,
2013-05-07 12:35:00,74.8,64.8,30.02,North,32767,0.0,0.0,71,0.00,,,0.00,Wunderground v.1.15,2013-05-07 17:35:00,
2013-05-07 12:40:00,74.4,64.4,30.02,North,32767,0.0,0.0,71,0.00,,,0.00,Wunderground v.1.15,2013-05-07 17:40:00,
2013-05-07 12:45:00,74.7,65.9,30.02,North,32767,0.0,0.0,74,0.00,,,0.00,Wunderground v.1.15,2013-05-07 17:45:00,
2013-05-07 12:50:00,75.2,65.1,30.02,North,32767,0.0,0.0,71,0.00,,,0.00,Wunderground v.1.15,2013-05-07 17:50:00,
2013-05-07 12:55:00,74.6,64.2,30.02,North,32767,0.0,0.0,70,0.00,,,0.00,Wunderground v.1.15,2013-05-07 17:55:00,
2013-05-07 13:00:00,74.5,65.3,30.01,North,32767,0.0,0.0,73,0.00,,,0.00,Wunderground v.1.15,2013-05-07 18:00:00,
2013-05-07 13:05:00,74.5,63.2,30.01,North,32767,0.0,0.0,68,0.00,,,0.00,Wunderground v.1.15,2013-05-07 18:05:00,
2013-05-07 13:10:00,73.8,63.4,30.01,North,32767,0.0,0.0,70,0.00,,,0.00,Wunderground v.1.15,2013-05-07 18:10:00,
2013-05-07 13:15:00,72.9,62.5,30.01,North,32767,0.0,0.0,70,0.00,,,0.00,Wunderground v.1.15,2013-05-07 18:15:00,
2013-05-07 13:20:00,72.7,63.5,30.00,North,32767,0.0,0.0,73,0.00,,,0.00,Wunderground v.1.15,2013-05-07 18:20:00,
2013-05-07 13:25:00,73.4,63.4,30.01,North,32767,0.0,0.0,71,0.00,,,0.00,Wunderground v.1.15,2013-05-07 18:25:00,
2013-05-07 13:30:00,74.0,63.2,30.00,North,32767,0.0,0.0,69,0.00,,,0.00,Wunderground v.1.15,2013-05-07 18:30:00,
2013-05-07 13:35:00,73.7,64.1,30.00,North,32767,0.0,0.0,72,0.00,,,0.00,Wunderground v.1.15,2013-05-07 18:35:00,
2013-05-07 13:40:00,73.0,64.2,30.00,North,32767,0.0,0.0,74,0.00,,,0.00,Wunderground v.1.15,2013-05-07 18:40:00,
2013-05-07 13:45:00,73.5,65.8,30.00,North,32767,0.0,0.0,77,0.00,,,0.00,Wunderground v.1.15,2013-05-07 18:45:00,
2013-05-07 13:50:00,74.2,64.6,30.00,North,32767,0.0,0.0,72,0.00,,,0.00,Wunderground v.1.15,2013-05-07 18:50:00,
2013-05-07 13:55:00,74.6,64.6,30.00,North,32767,0.0,0.0,71,0.00,,,0.00,Wunderground v.1.15,2013-05-07 18:55:00,
2013-05-07 14:00:00,75.1,66.6,30.00,North,32767,0.0,0.0,75,0.00,,,0.00,Wunderground v.1.15,2013-05-07 19:00:00,
2013-05-07 14:05:00,75.7,64.0,30.00,North,32767,0.0,0.0,67,0.00,,,0.00,Wunderground v.1.15,2013-05-07 19:05:00,
2013-05-07 14:10:00,75.2,64.3,30.00,North,32767,0.0,0.0,69,0.00,,,0.00,Wunderground v.1.15,2013-05-07 19:10:00,
2013-05-07 14:15:00,74.3,64.3,30.00,North,32767,0.0,0.0,71,0.00,,,0.00,Wunderground v.1.15,2013-05-07 19:15:00,
2013-05-07 14:20:00,73.6,64.4,29.99,North,32767,0.0,0.0,73,0.00,,,0.00,Wunderground v.1.15,2013-05-07 19:20:00,
2013-05-07 14:25:00,74.0,65.6,29.99,North,32767,0.0,0.0,75,0.00,,,0.00,Wunderground v.1.15,2013-05-07 19:25:00,
2013-05-07 14:30:00,75.0,66.5,29.99,North,32767,0.0,0.0,75,0.00,,,0.00,Wunderground v.1.15,2013-05-07 19:30:00,
2013-05-07 14:35:00,75.7,66.4,29.99,North,32767,0.0,0.0,73,0.00,,,0.00,Wunderground v.1.15,2013-05-07 19:35:00,
2013-05-07 14:40:00,75.1,65.5,29.99,North,32767,0.0,0.0,72,0.00,,,0.00,Wunderground v.1.15,2013-05-07 19:40:00,
2013-05-07 14:45:00,75.0,66.1,29.99,North,32767,0.0,0.0,74,0.00,,,0.00,Wunderground v.1.15,2013-05-07 19:45:00,
2013-05-07 14:50:00,75.0,66.1,29.99,North,32767,0.0,0.0,74,0.00,,,0.00,Wunderground v.1.15,2013-05-07 19:50:00,
2013-05-07 14:55:00,74.9,66.1,29.99,North,32767,0.0,0.0,74,0.00,,,0.00,Wunderground v.1.15,2013-05-07 19:55:00,
2013-05-07 15:00:00,75.0,66.5,29.99,North,32767,0.0,0.0,75,0.00,,,0.00,Wunderground v.1.15,2013-05-07 20:00:00,
2013-05-07 15:05:00,75.0,65.8,29.98,North,32767,0.0,0.0,73,0.00,,,0.00,Wunderground v.1.15,2013-05-07 20:05:00,
2013-05-07 15:10:00,74.8,65.2,29.99,North,32767,0.0,0.0,72,0.00,,,0.00,Wunderground v.1.15,2013-05-07 20:10:00,
2013-05-07 15:15:00,74.1,64.9,29.98,North,32767,0.0,0.0,73,0.00,,,0.00,Wunderground v.1.15,2013-05-07 20:15:00,
2013-05-07 15:20:00,74.2,65.0,29.98,North,32767,0.0,0.0,73,0.00,,,0.00,Wunderground v.1.15,2013-05-07 20:20:00,
2013-05-07 15:25:00,74.8,66.3,29.98,North,32767,0.0,0.0,75,0.00,,,0.00,Wunderground v.1.15,2013-05-07 20:25:00,
2013-05-07 15:30:00,75.1,66.2,29.98,North,32767,0.0,0.0,74,0.00,,,0.00,Wunderground v.1.15,2013-05-07 20:30:00,
2013-05-07 15:35:00,74.6,65.0,29.98,North,32767,0.0,0.0,72,0.00,,,0.00,Wunderground v.1.15,2013-05-07 20:35:00,
2013-05-07 15:40:00,73.6,65.2,29.98,North,32767,0.0,0.0,75,0.00,,,0.00,Wunderground v.1.15,2013-05-07 20:40:00,
2013-05-07 15:45:00,73.1,65.8,29.98,North,32767,0.0,0.0,78,0.00,,,0.00,Wunderground v.1.15,2013-05-07 20:45:00,
2013-05-07 15:50:00,73.7,66.8,29.98,North,32767,0.0,0.0,79,0.00,,,0.00,Wunderground v.1.15,2013-05-07 20:50:00,
2013-05-07 15:55:00,74.5,66.1,29.98,North,32767,0.0,0.0,75,0.00,,,0.00,Wunderground v.1.15,2013-05-07 20:55:00,
2013-05-07 16:00:00,74.8,66.3,29.98,North,32767,0.0,0.0,75,0.00,,,0.00,Wunderground v.1.15,2013-05-07 21:00:00,
2013-05-07 16:05:00,74.6,65.8,29.98,North,32767,0.0,0.0,74,0.00,,,0.00,Wunderground v.1.15,2013-05-07 21:05:00,
2013-05-07 16:10:00,73.9,65.9,29.98,North,32767,0.0,0.0,76,0.00,,,0.00,Wunderground v.1.15,2013-05-07 21:10:00,
2013-05-07 16:15:00,73.6,65.9,29.98,North,32767,0.0,0.0,77,0.00,,,0.00,Wunderground v.1.15,2013-05-07 21:15:00,
2013-05-07 16:20:00,73.4,66.1,29.98,North,32767,0.0,0.0,78,0.00,,,0.00,Wunderground v.1.15,2013-05-07 21:20:00,
2013-05-07 16:25:00,73.2,65.9,29.98,North,32767,0.0,0.0,78,0.00,,,0.00,Wunderground v.1.15,2013-05-07 21:25:00,
2013-05-07 16:30:00,73.1,66.2,29.97,North,32767,0.0,0.0,79,0.00,,,0.00,Wunderground v.1.15,2013-05-07 21:30:00,
2013-05-07 16:35:00,73.1,65.8,29.98,North,32767,0.0,0.0,78,0.00,,,0.00,Wunderground v.1.15,2013-05-07 21:35:00,
2013-05-07 16:40:00,72.7,65.4,29.97,North,32767,0.0,0.0,78,0.00,,,0.00,Wunderground v.1.15,2013-05-07 21:40:00,
2013-05-07 16:45:00,72.5,65.6,29.97,North,32767,0.0,0.0,79,0.00,,,0.00,Wunderground v.1.15,2013-05-07 21:45:00,
2013-05-07 16:50:00,72.4,65.9,29.97,North,32767,0.0,0.0,80,0.00,,,0.00,Wunderground v.1.15,2013-05-07 21:50:00,
2013-05-07 16:55:00,72.2,65.7,29.98,North,32767,0.0,0.0,80,0.00,,,0.00,Wunderground v.1.15,2013-05-07 21:55:00,
2013-05-07 17:00:00,72.1,65.9,29.97,North,32767,0.0,0.0,81,0.00,,,0.00,Wunderground v.1.15,2013-05-07 22:00:00,
2013-05-07 17:05:00,71.9,65.8,29.98,North,32767,0.0,0.0,81,0.00,,,0.00,Wunderground v.1.15,2013-05-07 22:05:00,
2013-05-07 17:10:00,71.8,65.7,29.98,North,32767,0.0,0.0,81,0.00,,,0.00,Wunderground v.1.15,2013-05-07 22:10:00,
2013-05-07 17:15:00,71.6,65.8,29.98,North,32767,0.0,0.0,82,0.00,,,0.00,Wunderground v.1.15,2013-05-07 22:15:00,
2013-05-07 17:20:00,71.4,65.6,29.98,North,32767,0.0,0.0,82,0.00,,,0.00,Wunderground v.1.15,2013-05-07 22:20:00,
2013-05-07 17:25:00,71.3,65.9,29.98,North,32767,0.0,0.0,83,0.00,,,0.00,Wunderground v.1.15,2013-05-07 22:25:00,
2013-05-07 17:30:00,71.1,65.3,29.98,North,32767,0.0,0.0,82,0.00,,,0.00,Wunderground v.1.15,2013-05-07 22:30:00,
2013-05-07 17:35:00,71.0,65.2,29.98,North,32767,0.0,0.0,82,0.00,,,0.00,Wunderground v.1.15,2013-05-07 22:35:00,
2013-05-07 17:40:00,70.9,65.1,29.98,North,32767,0.0,0.0,82,0.00,,,0.00,Wunderground v.1.15,2013-05-07 22:40:00,
2013-05-07 17:50:00,70.8,65.7,29.98,North,32767,0.0,0.0,84,0.00,,,0.00,Wunderground v.1.15,2013-05-07 22:50:00,
2013-05-07 17:55:00,70.8,65.7,29.98,North,32767,0.0,0.0,84,0.00,,,0.00,Wunderground v.1.15,2013-05-07 22:55:00,
2013-05-07 18:00:00,70.8,65.7,29.98,North,32767,0.0,0.0,84,0.00,,,0.00,Wunderground v.1.15,2013-05-07 23:00:00,
2013-05-07 18:05:00,70.7,66.0,29.98,North,32767,0.0,0.0,85,0.00,,,0.00,Wunderground v.1.15,2013-05-07 23:05:00,
2013-05-07 18:10:00,70.7,66.0,29.99,North,32767,0.0,0.0,85,0.00,,,0.00,Wunderground v.1.15,2013-05-07 23:10:00,
2013-05-07 18:15:00,70.6,65.9,29.98,North,32767,0.0,0.0,85,0.00,,,0.00,Wunderground v.1.15,2013-05-07 23:15:00,
2013-05-07 18:20:00,70.6,65.9,29.98,North,32767,0.0,0.0,85,0.00,,,0.00,Wunderground v.1.15,2013-05-07 23:20:00,
2013-05-07 18:25:00,70.5,66.1,29.98,North,32767,0.0,0.0,86,0.00,,,0.00,Wunderground v.1.15,2013-05-07 23:25:00,
2013-05-07 18:30:00,70.4,66.0,29.98,North,32767,0.0,0.0,86,0.00,,,0.00,Wunderground v.1.15,2013-05-07 23:30:00,
2013-05-07 18:35:00,70.4,66.0,29.98,North,32767,0.0,0.0,86,0.00,,,0.00,Wunderground v.1.15,2013-05-07 23:35:00,
2013-05-07 18:40:00,70.4,66.3,29.98,North,32767,0.0,0.0,87,0.00,,,0.00,Wunderground v.1.15,2013-05-07 23:40:00,
2013-05-07 18:45:00,70.4,66.3,29.98,North,32767,0.0,0.0,87,0.00,,,0.00,Wunderground v.1.15,2013-05-07 23:45:00,
2013-05-07 18:50:00,70.5,66.8,29.99,North,32767,0.0,0.0,88,0.00,,,0.00,Wunderground v.1.15,2013-05-07 23:50:00,
2013-05-07 19:00:00,70.5,67.1,29.99,North,32767,0.0,0.0,89,0.00,,,0.00,Wunderground v.1.15,2013-05-08 00:00:00,
2013-05-07 19:05:00,70.5,67.1,29.99,North,32767,0.0,0.0,89,0.00,,,0.00,Wunderground v.1.15,2013-05-08 00:05:00,
2013-05-07 19:10:00,70.4,67.0,29.99,North,32767,0.0,0.0,89,0.00,,,0.00,Wunderground v.1.15,2013-05-08 00:10:00,
2013-05-07 19:15:00,70.5,67.1,29.99,North,32767,0.0,0.0,89,0.00,,,0.00,Wunderground v.1.15,2013-05-08 00:15:00,
2013-05-07 19:20:00,70.5,67.1,29.99,North,32767,0.0,0.0,89,0.00,,,0.00,Wunderground v.1.15,2013-05-08 00:20:00,
2013-05-07 19:25:00,70.5,67.1,29.99,North,32767,0.0,0.0,89,0.00,,,0.00,Wunderground v.1.15,2013-05-08 00:25:00,
2013-05-07 19:30:00,70.4,67.3,29.99,North,32767,0.0,0.0,90,0.00,,,0.00,Wunderground v.1.15,2013-05-08 00:30:00,
2013-05-07 19:35:00,70.4,67.3,29.99,North,32767,0.0,0.0,90,0.00,,,0.00,Wunderground v.1.15,2013-05-08 00:35:00,
2013-05-07 19:40:00,70.3,67.2,29.99,North,32767,0.0,0.0,90,0.00,,,0.00,Wunderground v.1.15,2013-05-08 00:40:00,
2013-05-07 19:45:00,70.2,67.1,29.99,North,32767,0.0,0.0,90,0.00,,,0.00,Wunderground v.1.15,2013-05-08 00:45:00,
2013-05-07 19:50:00,70.1,67.3,29.99,North,32767,0.0,0.0,91,0.00,,,0.00,Wunderground v.1.15,2013-05-08 00:50:00,
2013-05-07 19:55:00,69.9,67.2,30.00,North,32767,0.0,0.0,91,0.00,,,0.00,Wunderground v.1.15,2013-05-08 00:55:00,
2013-05-07 20:00:00,69.7,67.3,30.00,North,32767,0.0,0.0,92,0.00,,,0.00,Wunderground v.1.15,2013-05-08 01:00:00,
2013-05-07 20:05:00,69.6,67.2,30.00,North,32767,0.0,0.0,92,0.00,,,0.00,Wunderground v.1.15,2013-05-08 01:05:00,
2013-05-07 20:10:00,69.5,67.1,30.00,North,32767,0.0,0.0,92,0.00,,,0.00,Wunderground v.1.15,2013-05-08 01:10:00,
2013-05-07 20:15:00,69.4,67.3,30.00,North,32767,0.0,0.0,93,0.00,,,0.00,Wunderground v.1.15,2013-05-08 01:15:00,
2013-05-07 20:20:00,69.3,67.2,30.00,North,32767,0.0,0.0,93,0.00,,,0.00,Wunderground v.1.15,2013-05-08 01:20:00,
2013-05-07 20:25:00,69.2,67.1,30.00,North,32767,0.0,0.0,93,0.00,,,0.00,Wunderground v.1.15,2013-05-08 01:25:00,
2013-05-07 20:30:00,69.1,67.0,30.00,North,32767,0.0,0.0,93,0.00,,,0.00,Wunderground v.1.15,2013-05-08 01:30:00,
2013-05-07 20:35:00,69.0,66.9,30.00,North,32767,0.0,0.0,93,0.00,,,0.00,Wunderground v.1.15,2013-05-08 01:35:00,
2013-05-07 20:40:00,68.9,67.1,30.00,North,32767,0.0,0.0,94,0.00,,,0.00,Wunderground v.1.15,2013-05-08 01:40:00,
2013-05-07 20:45:00,68.8,67.0,30.00,North,32767,0.0,0.0,94,0.00,,,0.00,Wunderground v.1.15,2013-05-08 01:45:00,
2013-05-07 20:50:00,68.6,66.8,30.00,North,32767,0.0,0.0,94,0.00,,,0.00,Wunderground v.1.15,2013-05-08 01:50:00,
2013-05-07 20:55:00,68.5,66.7,30.00,North,32767,0.0,0.0,94,0.00,,,0.00,Wunderground v.1.15,2013-05-08 01:55:00,
2013-05-07 21:00:00,68.4,66.6,30.01,North,32767,0.0,0.0,94,0.00,,,0.00,Wunderground v.1.15,2013-05-08 02:00:00,
2013-05-07 21:05:00,68.3,66.5,30.01,North,32767,0.0,0.0,94,0.00,,,0.00,Wunderground v.1.15,2013-05-08 02:05:00,
2013-05-07 21:10:00,68.2,66.4,30.01,North,32767,0.0,0.0,94,0.00,,,0.00,Wunderground v.1.15,2013-05-08 02:10:00,
2013-05-07 21:15:00,68.1,66.6,30.01,North,32767,0.0,0.0,95,0.00,,,0.00,Wunderground v.1.15,2013-05-08 02:15:00,
2013-05-07 21:20:00,67.9,66.4,30.01,North,32767,0.0,0.0,95,0.00,,,0.00,Wunderground v.1.15,2013-05-08 02:20:00,
2013-05-07 21:25:00,67.7,66.2,30.01,North,32767,0.0,0.0,95,0.00,,,0.00,Wunderground v.1.15,2013-05-08 02:25:00,
2013-05-07 21:30:00,67.6,66.1,30.01,North,32767,0.0,0.0,95,0.00,,,0.00,Wunderground v.1.15,2013-05-08 02:30:00,
2013-05-07 21:35:00,67.4,65.9,30.02,North,32767,0.0,0.0,95,0.00,,,0.00,Wunderground v.1.15,2013-05-08 02:35:00,
2013-05-07 21:40:00,67.3,65.8,30.02,North,32767,0.0,0.0,95,0.00,,,0.00,Wunderground v.1.15,2013-05-08 02:40:00,
2013-05-07 21:45:00,67.1,65.6,30.02,North,32767,0.0,0.0,95,0.00,,,0.00,Wunderground v.1.15,2013-05-08 02:45:00,
2013-05-07 21:50:00,66.9,65.4,30.02,North,32767,0.0,0.0,95,0.00,,,0.00,Wunderground v.1.15,2013-05-08 02:50:00,
2013-05-07 21:55:00,66.7,65.2,30.02,North,32767,0.0,0.0,95,0.00,,,0.00,Wunderground v.1.15,2013-05-08 02:55:00,
2013-05-07 22:05:00,66.4,64.9,30.02,North,32767,0.0,0.0,95,0.00,,,0.00,Wunderground v.1.15,2013-05-08 03:05:00,
2013-05-07 22:10:00,66.3,64.8,30.03,North,32767,0.0,0.0,95,0.00,,,0.00,Wunderground v.1.15,2013-05-08 03:10:00,
2013-05-07 22:15:00,66.1,64.9,30.03,North,32767,0.0,0.0,96,0.00,,,0.00,Wunderground v.1.15,2013-05-08 03:15:00,
2013-05-07 22:20:00,66.1,64.9,30.02,North,32767,0.0,0.0,96,0.00,,,0.00,Wunderground v.1.15,2013-05-08 03:20:00,
2013-05-07 22:25:00,66.0,64.8,30.02,North,32767,0.0,0.0,96,0.00,,,0.00,Wunderground v.1.15,2013-05-08 03:25:00,
2013-05-07 22:30:00,66.0,64.8,30.02,North,32767,0.0,0.0,96,0.00,,,0.00,Wunderground v.1.15,2013-05-08 03:30:00,
2013-05-07 22:35:00,65.9,64.7,30.02,North,32767,0.0,0.0,96,0.00,,,0.00,Wunderground v.1.15,2013-05-08 03:35:00,
2013-05-07 22:40:00,65.8,64.6,30.02,North,32767,0.0,0.0,96,0.00,,,0.00,Wunderground v.1.15,2013-05-08 03:40:00,
2013-05-07 22:45:00,65.9,64.7,30.02,North,32767,0.0,0.0,96,0.00,,,0.00,Wunderground v.1.15,2013-05-08 03:45:00,
2013-05-07 22:50:00,65.9,64.7,30.02,North,32767,0.0,0.0,96,0.00,,,0.00,Wunderground v.1.15,2013-05-08 03:50:00,
2013-05-07 22:55:00,65.9,64.7,30.02,North,32767,0.0,0.0,96,0.00,,,0.00,Wunderground v.1.15,2013-05-08 03:55:00,
2013-05-07 23:00:00,66.0,65.1,30.02,North,32767,0.0,0.0,97,0.00,,,0.00,Wunderground v.1.15,2013-05-08 04:00:00,
2013-05-07 23:05:00,66.0,65.1,30.02,North,32767,0.0,0.0,97,0.00,,,0.00,Wunderground v.1.15,2013-05-08 04:05:00,
2013-05-07 23:10:00,65.9,65.0,30.03,North,32767,0.0,0.0,97,0.00,,,0.00,Wunderground v.1.15,2013-05-08 04:10:00,
2013-05-07 23:15:00,66.0,65.1,30.03,North,32767,0.0,0.0,97,0.00,,,0.00,Wunderground v.1.15,2013-05-08 04:15:00,
2013-05-07 23:20:00,66.0,65.1,30.03,North,32767,0.0,0.0,97,0.00,,,0.00,Wunderground v.1.15,2013-05-08 04:20:00,
2013-05-07 23:25:00,66.0,65.1,30.03,North,32767,0.0,0.0,97,0.00,,,0.00,Wunderground v.1.15,2013-05-08 04:25:00,
2013-05-07 23:30:00,66.1,65.2,30.03,North,32767,0.0,0.0,97,0.00,,,0.00,Wunderground v.1.15,2013-05-08 04:30:00,
2013-05-07 23:35:00,66.3,65.4,30.03,North,32767,0.0,0.0,97,0.00,,,0.00,Wunderground v.1.15,2013-05-08 04:35:00,
2013-05-07 23:40:00,66.4,65.5,30.03,North,32767,0.0,0.0,97,0.00,,,0.00,Wunderground v.1.15,2013-05-08 04:40:00,
2013-05-07 23:45:00,66.5,65.6,30.03,North,32767,0.0,0.0,97,0.00,,,0.00,Wunderground v.1.15,2013-05-08 04:45:00,
2013-05-07 23:50:00,66.5,65.6,30.03,North,32767,0.0,0.0,97,0.00,,,0.00,Wunderground v.1.15,2013-05-08 04:50:00,
2013-05-07 23:55:00,66.5,65.6,30.03,North,32767,0.0,0.0,97,0.00,,,0.00,Wunderground v.1.15,2013-05-08 04:55:00,